sensor_id;sensor_type;location;lat;lon;timestamp;P1;durP1;ratioP1;P2;durP2;ratioP2
59960;SDS011;55902;-37.980;-63.602;2023-04-07T00:00:20;4.63;;;2.50;;
59960;SDS011;55902;-37.980;-63.602;2023-04-07T00:02:47;3.45;;;2.22;;
59960;SDS011;55902;-37.980;-63.602;2023-04-07T00:05:15;4.05;;;2.60;;
59960;SDS011;55902;-37.980;-63.602;2023-04-07T00:07:42;2.92;;;2.03;;
59960;SDS011;55902;-37.980;-63.602;2023-04-07T00:10:09;2.75;;;2.22;;
59960;SDS011;55902;-37.980;-63.602;2023-04-07T00:12:36;3.20;;;2.22;;
59960;SDS011;55902;-37.980;-63.602;2023-04-07T00:15:03;2.40;;;2.20;;
59960;SDS011;55902;-37.980;-63.602;2023-04-07T00:17:30;3.55;;;2.30;;
59960;SDS011;55902;-37.980;-63.602;2023-04-07T00:19:57;2.92;;;2.30;;
59960;SDS011;55902;-37.980;-63.602;2023-04-07T00:22:24;3.97;;;2.53;;
59960;SDS011;55902;-37.980;-63.602;2023-04-07T00:24:51;3.90;;;2.45;;
59960;SDS011;55902;-37.980;-63.602;2023-04-07T00:27:37;4.25;;;2.50;;
59960;SDS011;55902;-37.980;-63.602;2023-04-07T00:30:05;2.75;;;2.55;;
59960;SDS011;55902;-37.980;-63.602;2023-04-07T00:32:32;3.63;;;3.33;;
59960;SDS011;55902;-37.980;-63.602;2023-04-07T00:34:59;3.20;;;2.60;;
59960;SDS011;55902;-37.980;-63.602;2023-04-07T00:37:26;2.78;;;2.25;;
59960;SDS011;55902;-37.980;-63.602;2023-04-07T00:39:53;5.00;;;2.60;;
59960;SDS011;55902;-37.980;-63.602;2023-04-07T00:42:21;4.80;;;2.60;;
59960;SDS011;55902;-37.980;-63.602;2023-04-07T00:44:48;3.17;;;2.83;;
59960;SDS011;55902;-37.980;-63.602;2023-04-07T00:47:15;3.95;;;2.80;;
59960;SDS011;55902;-37.980;-63.602;2023-04-07T00:49:42;3.42;;;3.00;;
59960;SDS011;55902;-37.980;-63.602;2023-04-07T00:52:09;3.28;;;2.97;;
59960;SDS011;55902;-37.980;-63.602;2023-04-07T00:54:38;4.20;;;3.20;;
59960;SDS011;55902;-37.980;-63.602;2023-04-07T00:57:06;3.63;;;3.10;;
59960;SDS011;55902;-37.980;-63.602;2023-04-07T01:09:53;4.65;;;4.22;;
59960;SDS011;55902;-37.980;-63.602;2023-04-07T01:15:36;6.53;;;5.27;;
59960;SDS011;55902;-37.980;-63.602;2023-04-07T01:18:09;7.10;;;5.85;;
59960;SDS011;55902;-37.980;-63.602;2023-04-07T01:20:41;6.30;;;5.00;;
59960;SDS011;55902;-37.980;-63.602;2023-04-07T01:23:14;4.95;;;4.35;;
59960;SDS011;55902;-37.980;-63.602;2023-04-07T01:28:45;4.03;;;3.00;;
59960;SDS011;55902;-37.980;-63.602;2023-04-07T01:31:27;3.35;;;2.60;;
59960;SDS011;55902;-37.980;-63.602;2023-04-07T01:33:55;2.72;;;2.40;;
59960;SDS011;55902;-37.980;-63.602;2023-04-07T01:36:24;3.60;;;2.58;;
59960;SDS011;55902;-37.980;-63.602;2023-04-07T01:38:53;2.78;;;2.40;;
59960;SDS011;55902;-37.980;-63.602;2023-04-07T01:41:20;2.40;;;2.20;;
59960;SDS011;55902;-37.980;-63.602;2023-04-07T01:43:52;2.67;;;2.38;;
59960;SDS011;55902;-37.980;-63.602;2023-04-07T01:46:20;3.25;;;2.40;;
59960;SDS011;55902;-37.980;-63.602;2023-04-07T01:48:47;3.72;;;2.72;;
59960;SDS011;55902;-37.980;-63.602;2023-04-07T01:51:14;2.50;;;2.28;;
59960;SDS011;55902;-37.980;-63.602;2023-04-07T01:53:46;4.60;;;2.90;;
59960;SDS011;55902;-37.980;-63.602;2023-04-07T01:56:14;4.38;;;3.30;;
59960;SDS011;55902;-37.980;-63.602;2023-04-07T01:58:41;5.30;;;3.45;;
59960;SDS011;55902;-37.980;-63.602;2023-04-07T02:05:12;6.25;;;4.65;;
59960;SDS011;55902;-37.980;-63.602;2023-04-07T02:07:41;5.80;;;4.47;;
59960;SDS011;55902;-37.980;-63.602;2023-04-07T02:10:16;6.15;;;4.45;;
59960;SDS011;55902;-37.980;-63.602;2023-04-07T02:12:48;6.90;;;5.40;;
59960;SDS011;55902;-37.980;-63.602;2023-04-07T02:15:16;5.00;;;4.57;;
59960;SDS011;55902;-37.980;-63.602;2023-04-07T02:17:48;3.90;;;3.17;;
59960;SDS011;55902;-37.980;-63.602;2023-04-07T02:20:19;3.60;;;3.30;;
59960;SDS011;55902;-37.980;-63.602;2023-04-07T02:22:47;6.15;;;3.67;;
59960;SDS011;55902;-37.980;-63.602;2023-04-07T02:27:58;6.70;;;3.97;;
59960;SDS011;55902;-37.980;-63.602;2023-04-07T02:30:26;4.78;;;3.45;;
59960;SDS011;55902;-37.980;-63.602;2023-04-07T02:32:53;7.32;;;4.00;;
59960;SDS011;55902;-37.980;-63.602;2023-04-07T02:35:20;5.55;;;3.38;;
59960;SDS011;55902;-37.980;-63.602;2023-04-07T02:37:47;4.85;;;2.70;;
59960;SDS011;55902;-37.980;-63.602;2023-04-07T02:40:14;4.20;;;2.55;;
59960;SDS011;55902;-37.980;-63.602;2023-04-07T02:42:41;6.22;;;2.60;;
59960;SDS011;55902;-37.980;-63.602;2023-04-07T02:45:09;4.95;;;2.58;;
59960;SDS011;55902;-37.980;-63.602;2023-04-07T02:47:37;3.58;;;2.35;;
59960;SDS011;55902;-37.980;-63.602;2023-04-07T02:50:05;3.10;;;2.20;;
59960;SDS011;55902;-37.980;-63.602;2023-04-07T02:52:32;3.88;;;2.17;;
59960;SDS011;55902;-37.980;-63.602;2023-04-07T02:54:59;3.58;;;2.30;;
59960;SDS011;55902;-37.980;-63.602;2023-04-07T02:57:27;4.57;;;2.38;;
59960;SDS011;55902;-37.980;-63.602;2023-04-07T02:59:54;4.28;;;2.20;;
59960;SDS011;55902;-37.980;-63.602;2023-04-07T03:02:23;5.78;;;2.50;;
59960;SDS011;55902;-37.980;-63.602;2023-04-07T03:04:53;5.80;;;2.20;;
59960;SDS011;55902;-37.980;-63.602;2023-04-07T03:07:20;4.05;;;2.40;;
59960;SDS011;55902;-37.980;-63.602;2023-04-07T03:09:47;6.28;;;2.58;;
59960;SDS011;55902;-37.980;-63.602;2023-04-07T03:12:14;4.15;;;2.42;;
59960;SDS011;55902;-37.980;-63.602;2023-04-07T03:14:41;4.32;;;2.20;;
59960;SDS011;55902;-37.980;-63.602;2023-04-07T03:17:08;4.85;;;2.03;;
59960;SDS011;55902;-37.980;-63.602;2023-04-07T03:19:36;5.72;;;2.30;;
59960;SDS011;55902;-37.980;-63.602;2023-04-07T03:22:03;2.83;;;2.10;;
59960;SDS011;55902;-37.980;-63.602;2023-04-07T03:24:30;2.92;;;2.20;;
59960;SDS011;55902;-37.980;-63.602;2023-04-07T03:26:57;4.78;;;2.20;;
59960;SDS011;55902;-37.980;-63.602;2023-04-07T03:29:24;4.40;;;2.42;;
59960;SDS011;55902;-37.980;-63.602;2023-04-07T03:31:50;6.90;;;2.28;;
59960;SDS011;55902;-37.980;-63.602;2023-04-07T03:34:17;4.05;;;2.40;;
59960;SDS011;55902;-37.980;-63.602;2023-04-07T03:36:44;4.10;;;2.10;;
59960;SDS011;55902;-37.980;-63.602;2023-04-07T03:39:11;5.18;;;2.45;;
59960;SDS011;55902;-37.980;-63.602;2023-04-07T03:41:38;5.53;;;2.20;;
59960;SDS011;55902;-37.980;-63.602;2023-04-07T03:44:05;9.23;;;2.40;;
59960;SDS011;55902;-37.980;-63.602;2023-04-07T03:49:54;3.63;;;2.00;;
59960;SDS011;55902;-37.980;-63.602;2023-04-07T03:52:23;4.70;;;2.33;;
59960;SDS011;55902;-37.980;-63.602;2023-04-07T03:54:50;5.35;;;2.17;;
59960;SDS011;55902;-37.980;-63.602;2023-04-07T03:57:19;3.88;;;2.20;;
59960;SDS011;55902;-37.980;-63.602;2023-04-07T03:59:47;6.93;;;2.60;;
59960;SDS011;55902;-37.980;-63.602;2023-04-07T04:02:16;6.80;;;2.63;;
59960;SDS011;55902;-37.980;-63.602;2023-04-07T04:04:43;3.95;;;2.28;;
59960;SDS011;55902;-37.980;-63.602;2023-04-07T04:07:10;4.43;;;2.38;;
59960;SDS011;55902;-37.980;-63.602;2023-04-07T04:09:38;8.75;;;3.15;;
59960;SDS011;55902;-37.980;-63.602;2023-04-07T04:12:05;8.07;;;3.05;;
59960;SDS011;55902;-37.980;-63.602;2023-04-07T04:14:32;8.77;;;3.45;;
59960;SDS011;55902;-37.980;-63.602;2023-04-07T04:16:59;8.02;;;3.33;;
59960;SDS011;55902;-37.980;-63.602;2023-04-07T04:19:26;5.90;;;2.72;;
59960;SDS011;55902;-37.980;-63.602;2023-04-07T04:21:53;4.00;;;2.42;;
59960;SDS011;55902;-37.980;-63.602;2023-04-07T04:24:20;8.68;;;2.42;;
59960;SDS011;55902;-37.980;-63.602;2023-04-07T04:26:47;5.40;;;2.33;;
59960;SDS011;55902;-37.980;-63.602;2023-04-07T04:29:14;5.95;;;2.55;;
59960;SDS011;55902;-37.980;-63.602;2023-04-07T04:31:43;7.55;;;2.95;;
59960;SDS011;55902;-37.980;-63.602;2023-04-07T04:34:09;5.78;;;3.10;;
59960;SDS011;55902;-37.980;-63.602;2023-04-07T04:36:37;6.68;;;3.30;;
59960;SDS011;55902;-37.980;-63.602;2023-04-07T04:39:05;10.98;;;3.53;;
59960;SDS011;55902;-37.980;-63.602;2023-04-07T04:41:32;5.90;;;3.53;;
59960;SDS011;55902;-37.980;-63.602;2023-04-07T04:44:00;5.43;;;3.05;;
59960;SDS011;55902;-37.980;-63.602;2023-04-07T04:52:40;7.13;;;3.55;;
59960;SDS011;55902;-37.980;-63.602;2023-04-07T04:55:09;7.97;;;3.90;;
59960;SDS011;55902;-37.980;-63.602;2023-04-07T04:57:36;6.60;;;3.00;;
59960;SDS011;55902;-37.980;-63.602;2023-04-07T05:00:05;5.55;;;3.00;;
59960;SDS011;55902;-37.980;-63.602;2023-04-07T05:02:32;5.90;;;2.53;;
59960;SDS011;55902;-37.980;-63.602;2023-04-07T05:05:00;4.72;;;2.70;;
59960;SDS011;55902;-37.980;-63.602;2023-04-07T05:07:28;7.85;;;3.38;;
59960;SDS011;55902;-37.980;-63.602;2023-04-07T05:09:55;9.35;;;3.08;;
59960;SDS011;55902;-37.980;-63.602;2023-04-07T05:12:22;8.70;;;3.75;;
59960;SDS011;55902;-37.980;-63.602;2023-04-07T05:14:49;10.93;;;4.00;;
59960;SDS011;55902;-37.980;-63.602;2023-04-07T05:17:16;7.25;;;3.85;;
59960;SDS011;55902;-37.980;-63.602;2023-04-07T05:19:43;10.48;;;3.63;;
59960;SDS011;55902;-37.980;-63.602;2023-04-07T05:22:10;6.20;;;3.80;;
59960;SDS011;55902;-37.980;-63.602;2023-04-07T05:24:36;9.60;;;3.47;;
59960;SDS011;55902;-37.980;-63.602;2023-04-07T05:27:03;8.52;;;3.50;;
59960;SDS011;55902;-37.980;-63.602;2023-04-07T05:29:30;6.10;;;3.13;;
59960;SDS011;55902;-37.980;-63.602;2023-04-07T05:31:57;8.95;;;3.17;;
59960;SDS011;55902;-37.980;-63.602;2023-04-07T05:34:26;6.13;;;2.90;;
59960;SDS011;55902;-37.980;-63.602;2023-04-07T05:36:55;6.85;;;3.53;;
59960;SDS011;55902;-37.980;-63.602;2023-04-07T05:39:22;6.53;;;3.00;;
59960;SDS011;55902;-37.980;-63.602;2023-04-07T05:41:50;8.05;;;2.90;;
59960;SDS011;55902;-37.980;-63.602;2023-04-07T05:44:17;6.38;;;2.78;;
59960;SDS011;55902;-37.980;-63.602;2023-04-07T05:46:44;4.60;;;2.90;;
59960;SDS011;55902;-37.980;-63.602;2023-04-07T05:49:11;8.13;;;2.85;;
59960;SDS011;55902;-37.980;-63.602;2023-04-07T05:51:39;8.00;;;2.97;;
59960;SDS011;55902;-37.980;-63.602;2023-04-07T05:54:06;8.27;;;3.50;;
59960;SDS011;55902;-37.980;-63.602;2023-04-07T05:56:33;7.28;;;3.38;;
59960;SDS011;55902;-37.980;-63.602;2023-04-07T05:59:00;5.75;;;2.65;;
59960;SDS011;55902;-37.980;-63.602;2023-04-07T06:01:27;4.40;;;2.50;;
59960;SDS011;55902;-37.980;-63.602;2023-04-07T06:03:54;4.93;;;2.60;;
59960;SDS011;55902;-37.980;-63.602;2023-04-07T06:06:23;3.75;;;2.50;;
59960;SDS011;55902;-37.980;-63.602;2023-04-07T06:11:46;3.97;;;2.33;;
59960;SDS011;55902;-37.980;-63.602;2023-04-07T06:14:13;3.90;;;2.65;;
59960;SDS011;55902;-37.980;-63.602;2023-04-07T06:16:40;5.82;;;2.53;;
59960;SDS011;55902;-37.980;-63.602;2023-04-07T06:19:07;2.70;;;2.22;;
59960;SDS011;55902;-37.980;-63.602;2023-04-07T06:21:34;5.68;;;2.70;;
59960;SDS011;55902;-37.980;-63.602;2023-04-07T06:24:01;5.00;;;2.33;;
59960;SDS011;55902;-37.980;-63.602;2023-04-07T06:26:28;6.07;;;2.63;;
59960;SDS011;55902;-37.980;-63.602;2023-04-07T06:28:55;6.53;;;2.83;;
59960;SDS011;55902;-37.980;-63.602;2023-04-07T06:31:22;5.53;;;2.60;;
59960;SDS011;55902;-37.980;-63.602;2023-04-07T06:33:50;4.55;;;2.50;;
59960;SDS011;55902;-37.980;-63.602;2023-04-07T06:36:17;4.00;;;2.50;;
59960;SDS011;55902;-37.980;-63.602;2023-04-07T06:38:45;6.32;;;2.60;;
59960;SDS011;55902;-37.980;-63.602;2023-04-07T06:41:12;4.93;;;2.50;;
59960;SDS011;55902;-37.980;-63.602;2023-04-07T06:43:42;4.90;;;2.50;;
59960;SDS011;55902;-37.980;-63.602;2023-04-07T06:46:09;9.30;;;2.60;;
59960;SDS011;55902;-37.980;-63.602;2023-04-07T06:48:36;4.75;;;2.65;;
59960;SDS011;55902;-37.980;-63.602;2023-04-07T06:51:03;4.65;;;2.50;;
59960;SDS011;55902;-37.980;-63.602;2023-04-07T06:53:30;4.75;;;2.63;;
59960;SDS011;55902;-37.980;-63.602;2023-04-07T06:58:36;5.45;;;2.60;;
59960;SDS011;55902;-37.980;-63.602;2023-04-07T07:04:40;3.97;;;2.70;;
59960;SDS011;55902;-37.980;-63.602;2023-04-07T07:07:07;4.68;;;2.50;;
59960;SDS011;55902;-37.980;-63.602;2023-04-07T07:09:34;3.97;;;2.65;;
59960;SDS011;55902;-37.980;-63.602;2023-04-07T07:12:02;5.10;;;2.80;;
59960;SDS011;55902;-37.980;-63.602;2023-04-07T07:14:32;6.57;;;3.13;;
59960;SDS011;55902;-37.980;-63.602;2023-04-07T07:16:59;4.80;;;3.08;;
59960;SDS011;55902;-37.980;-63.602;2023-04-07T07:19:27;4.72;;;2.95;;
59960;SDS011;55902;-37.980;-63.602;2023-04-07T07:21:54;8.80;;;3.30;;
59960;SDS011;55902;-37.980;-63.602;2023-04-07T07:24:20;6.93;;;2.70;;
59960;SDS011;55902;-37.980;-63.602;2023-04-07T07:26:47;7.03;;;3.20;;
59960;SDS011;55902;-37.980;-63.602;2023-04-07T07:29:14;4.18;;;3.10;;
59960;SDS011;55902;-37.980;-63.602;2023-04-07T07:31:41;4.32;;;2.70;;
59960;SDS011;55902;-37.980;-63.602;2023-04-07T07:34:08;6.15;;;3.20;;
59960;SDS011;55902;-37.980;-63.602;2023-04-07T07:36:35;4.85;;;3.03;;
59960;SDS011;55902;-37.980;-63.602;2023-04-07T07:39:02;6.13;;;3.22;;
59960;SDS011;55902;-37.980;-63.602;2023-04-07T07:41:30;5.80;;;2.80;;
59960;SDS011;55902;-37.980;-63.602;2023-04-07T07:43:57;6.25;;;3.05;;
59960;SDS011;55902;-37.980;-63.602;2023-04-07T07:46:26;2.95;;;2.65;;
59960;SDS011;55902;-37.980;-63.602;2023-04-07T07:48:53;3.63;;;2.75;;
59960;SDS011;55902;-37.980;-63.602;2023-04-07T07:51:20;6.57;;;3.30;;
59960;SDS011;55902;-37.980;-63.602;2023-04-07T07:53:47;6.57;;;3.35;;
59960;SDS011;55902;-37.980;-63.602;2023-04-07T07:56:14;3.75;;;2.88;;
59960;SDS011;55902;-37.980;-63.602;2023-04-07T07:58:42;6.28;;;3.22;;
59960;SDS011;55902;-37.980;-63.602;2023-04-07T08:01:09;5.80;;;3.15;;
59960;SDS011;55902;-37.980;-63.602;2023-04-07T08:03:38;4.40;;;2.92;;
59960;SDS011;55902;-37.980;-63.602;2023-04-07T08:06:05;7.13;;;3.15;;
59960;SDS011;55902;-37.980;-63.602;2023-04-07T08:08:34;7.22;;;3.15;;
59960;SDS011;55902;-37.980;-63.602;2023-04-07T08:11:04;6.03;;;3.03;;
59960;SDS011;55902;-37.980;-63.602;2023-04-07T08:13:33;5.50;;;3.00;;
59960;SDS011;55902;-37.980;-63.602;2023-04-07T08:16:00;3.47;;;3.10;;
59960;SDS011;55902;-37.980;-63.602;2023-04-07T08:18:27;4.53;;;2.53;;
59960;SDS011;55902;-37.980;-63.602;2023-04-07T08:20:54;7.70;;;3.30;;
59960;SDS011;55902;-37.980;-63.602;2023-04-07T08:23:22;5.70;;;3.20;;
59960;SDS011;55902;-37.980;-63.602;2023-04-07T08:25:49;7.18;;;3.20;;
59960;SDS011;55902;-37.980;-63.602;2023-04-07T08:28:15;6.65;;;3.05;;
59960;SDS011;55902;-37.980;-63.602;2023-04-07T08:30:42;6.95;;;3.50;;
59960;SDS011;55902;-37.980;-63.602;2023-04-07T08:33:09;9.52;;;4.10;;
59960;SDS011;55902;-37.980;-63.602;2023-04-07T08:35:36;8.27;;;5.10;;
59960;SDS011;55902;-37.980;-63.602;2023-04-07T08:38:03;14.73;;;6.05;;
59960;SDS011;55902;-37.980;-63.602;2023-04-07T08:40:32;10.25;;;5.75;;
59960;SDS011;55902;-37.980;-63.602;2023-04-07T08:43:00;10.10;;;5.32;;
59960;SDS011;55902;-37.980;-63.602;2023-04-07T08:45:33;8.88;;;4.35;;
59960;SDS011;55902;-37.980;-63.602;2023-04-07T08:48:03;6.25;;;3.95;;
59960;SDS011;55902;-37.980;-63.602;2023-04-07T08:50:35;11.23;;;4.68;;
59960;SDS011;55902;-37.980;-63.602;2023-04-07T08:56:24;10.05;;;4.65;;
59960;SDS011;55902;-37.980;-63.602;2023-04-07T08:58:52;9.70;;;4.38;;
59960;SDS011;55902;-37.980;-63.602;2023-04-07T09:01:20;9.02;;;3.55;;
59960;SDS011;55902;-37.980;-63.602;2023-04-07T09:03:48;6.00;;;3.42;;
59960;SDS011;55902;-37.980;-63.602;2023-04-07T09:06:16;8.93;;;3.50;;
59960;SDS011;55902;-37.980;-63.602;2023-04-07T09:08:43;5.88;;;3.40;;
59960;SDS011;55902;-37.980;-63.602;2023-04-07T09:11:10;9.65;;;3.75;;
59960;SDS011;55902;-37.980;-63.602;2023-04-07T09:13:37;6.07;;;3.45;;
59960;SDS011;55902;-37.980;-63.602;2023-04-07T09:16:05;8.10;;;3.65;;
59960;SDS011;55902;-37.980;-63.602;2023-04-07T09:18:32;4.88;;;3.35;;
59960;SDS011;55902;-37.980;-63.602;2023-04-07T09:21:00;6.78;;;3.42;;
59960;SDS011;55902;-37.980;-63.602;2023-04-07T09:23:29;7.38;;;4.30;;
59960;SDS011;55902;-37.980;-63.602;2023-04-07T09:25:59;10.88;;;4.95;;
59960;SDS011;55902;-37.980;-63.602;2023-04-07T09:28:59;12.18;;;6.00;;
59960;SDS011;55902;-37.980;-63.602;2023-04-07T09:31:47;7.93;;;4.75;;
59960;SDS011;55902;-37.980;-63.602;2023-04-07T09:34:26;8.32;;;5.15;;
59960;SDS011;55902;-37.980;-63.602;2023-04-07T09:36:55;8.38;;;4.43;;
59960;SDS011;55902;-37.980;-63.602;2023-04-07T09:39:23;6.25;;;4.22;;
59960;SDS011;55902;-37.980;-63.602;2023-04-07T09:41:51;6.97;;;3.70;;
59960;SDS011;55902;-37.980;-63.602;2023-04-07T09:44:18;7.72;;;3.45;;
59960;SDS011;55902;-37.980;-63.602;2023-04-07T09:46:56;5.10;;;3.40;;
59960;SDS011;55902;-37.980;-63.602;2023-04-07T09:49:24;5.10;;;3.55;;
59960;SDS011;55902;-37.980;-63.602;2023-04-07T09:52:01;7.40;;;4.22;;
59960;SDS011;55902;-37.980;-63.602;2023-04-07T09:54:39;10.18;;;4.63;;
59960;SDS011;55902;-37.980;-63.602;2023-04-07T09:57:07;9.80;;;5.90;;
59960;SDS011;55902;-37.980;-63.602;2023-04-07T09:59:36;12.98;;;6.25;;
59960;SDS011;55902;-37.980;-63.602;2023-04-07T10:02:04;10.68;;;5.60;;
59960;SDS011;55902;-37.980;-63.602;2023-04-07T10:04:32;6.88;;;4.22;;
59960;SDS011;55902;-37.980;-63.602;2023-04-07T10:06:59;9.88;;;4.32;;
59960;SDS011;55902;-37.980;-63.602;2023-04-07T10:09:28;9.55;;;3.90;;
59960;SDS011;55902;-37.980;-63.602;2023-04-07T10:11:56;6.93;;;4.57;;
59960;SDS011;55902;-37.980;-63.602;2023-04-07T10:14:29;9.85;;;4.35;;
59960;SDS011;55902;-37.980;-63.602;2023-04-07T10:17:00;10.52;;;4.80;;
59960;SDS011;55902;-37.980;-63.602;2023-04-07T10:19:28;7.70;;;4.43;;
59960;SDS011;55902;-37.980;-63.602;2023-04-07T10:22:00;8.35;;;4.70;;
59960;SDS011;55902;-37.980;-63.602;2023-04-07T10:24:36;9.10;;;4.30;;
59960;SDS011;55902;-37.980;-63.602;2023-04-07T10:27:33;9.45;;;4.30;;
59960;SDS011;55902;-37.980;-63.602;2023-04-07T10:30:04;9.90;;;4.50;;
59960;SDS011;55902;-37.980;-63.602;2023-04-07T10:32:46;6.63;;;3.75;;
59960;SDS011;55902;-37.980;-63.602;2023-04-07T10:35:18;7.63;;;4.55;;
59960;SDS011;55902;-37.980;-63.602;2023-04-07T10:40:35;11.40;;;5.10;;
59960;SDS011;55902;-37.980;-63.602;2023-04-07T10:43:03;13.00;;;5.30;;
59960;SDS011;55902;-37.980;-63.602;2023-04-07T10:48:20;8.07;;;4.18;;
59960;SDS011;55902;-37.980;-63.602;2023-04-07T11:04:00;7.93;;;4.53;;
59960;SDS011;55902;-37.980;-63.602;2023-04-07T11:06:26;8.00;;;4.32;;
59960;SDS011;55902;-37.980;-63.602;2023-04-07T11:08:54;7.07;;;3.83;;
59960;SDS011;55902;-37.980;-63.602;2023-04-07T11:11:34;8.45;;;3.42;;
59960;SDS011;55902;-37.980;-63.602;2023-04-07T11:14:05;5.85;;;3.67;;
59960;SDS011;55902;-37.980;-63.602;2023-04-07T11:16:35;8.32;;;4.00;;
59960;SDS011;55902;-37.980;-63.602;2023-04-07T11:19:04;5.45;;;3.60;;
59960;SDS011;55902;-37.980;-63.602;2023-04-07T11:21:34;5.75;;;3.72;;
59960;SDS011;55902;-37.980;-63.602;2023-04-07T11:24:01;6.00;;;3.20;;
59960;SDS011;55902;-37.980;-63.602;2023-04-07T11:26:28;5.95;;;3.78;;
59960;SDS011;55902;-37.980;-63.602;2023-04-07T11:29:01;7.28;;;3.72;;
59960;SDS011;55902;-37.980;-63.602;2023-04-07T11:31:30;6.00;;;3.22;;
59960;SDS011;55902;-37.980;-63.602;2023-04-07T11:34:01;6.78;;;3.40;;
59960;SDS011;55902;-37.980;-63.602;2023-04-07T11:36:39;5.28;;;3.70;;
59960;SDS011;55902;-37.980;-63.602;2023-04-07T11:39:19;3.97;;;3.10;;
59960;SDS011;55902;-37.980;-63.602;2023-04-07T11:41:47;4.85;;;2.90;;
59960;SDS011;55902;-37.980;-63.602;2023-04-07T11:44:15;6.80;;;3.00;;
59960;SDS011;55902;-37.980;-63.602;2023-04-07T11:46:52;6.72;;;2.90;;
59960;SDS011;55902;-37.980;-63.602;2023-04-07T11:52:03;4.55;;;2.60;;
59960;SDS011;55902;-37.980;-63.602;2023-04-07T11:54:41;4.57;;;2.83;;
59960;SDS011;55902;-37.980;-63.602;2023-04-07T11:57:11;5.47;;;3.00;;
59960;SDS011;55902;-37.980;-63.602;2023-04-07T11:59:39;7.03;;;3.42;;
59960;SDS011;55902;-37.980;-63.602;2023-04-07T12:02:06;6.32;;;2.97;;
59960;SDS011;55902;-37.980;-63.602;2023-04-07T12:04:33;5.07;;;2.80;;
59960;SDS011;55902;-37.980;-63.602;2023-04-07T12:07:10;2.92;;;2.47;;
59960;SDS011;55902;-37.980;-63.602;2023-04-07T12:09:38;5.35;;;3.00;;
59960;SDS011;55902;-37.980;-63.602;2023-04-07T12:12:05;6.38;;;2.80;;
59960;SDS011;55902;-37.980;-63.602;2023-04-07T12:14:34;6.43;;;3.03;;
59960;SDS011;55902;-37.980;-63.602;2023-04-07T12:17:01;5.03;;;2.67;;
59960;SDS011;55902;-37.980;-63.602;2023-04-07T12:19:29;5.47;;;2.80;;
59960;SDS011;55902;-37.980;-63.602;2023-04-07T12:22:08;4.65;;;2.70;;
59960;SDS011;55902;-37.980;-63.602;2023-04-07T12:24:54;5.45;;;2.78;;
59960;SDS011;55902;-37.980;-63.602;2023-04-07T12:27:21;5.25;;;2.53;;
59960;SDS011;55902;-37.980;-63.602;2023-04-07T12:29:48;4.80;;;2.70;;
59960;SDS011;55902;-37.980;-63.602;2023-04-07T12:32:18;7.70;;;3.03;;
59960;SDS011;55902;-37.980;-63.602;2023-04-07T12:34:45;6.10;;;2.60;;
59960;SDS011;55902;-37.980;-63.602;2023-04-07T12:37:12;4.53;;;2.72;;
59960;SDS011;55902;-37.980;-63.602;2023-04-07T12:39:39;3.40;;;2.25;;
59960;SDS011;55902;-37.980;-63.602;2023-04-07T12:42:06;5.88;;;2.60;;
59960;SDS011;55902;-37.980;-63.602;2023-04-07T12:44:36;9.10;;;2.80;;
59960;SDS011;55902;-37.980;-63.602;2023-04-07T12:47:03;3.60;;;2.20;;
59960;SDS011;55902;-37.980;-63.602;2023-04-07T12:49:30;4.70;;;2.33;;
59960;SDS011;55902;-37.980;-63.602;2023-04-07T12:51:57;6.95;;;2.55;;
59960;SDS011;55902;-37.980;-63.602;2023-04-07T12:54:31;4.43;;;2.30;;
59960;SDS011;55902;-37.980;-63.602;2023-04-07T12:56:58;4.13;;;2.25;;
59960;SDS011;55902;-37.980;-63.602;2023-04-07T12:59:25;4.38;;;2.10;;
59960;SDS011;55902;-37.980;-63.602;2023-04-07T13:01:52;3.90;;;2.30;;
59960;SDS011;55902;-37.980;-63.602;2023-04-07T13:04:20;6.03;;;2.30;;
59960;SDS011;55902;-37.980;-63.602;2023-04-07T13:06:47;4.28;;;2.50;;
59960;SDS011;55902;-37.980;-63.602;2023-04-07T13:09:14;3.60;;;2.38;;
59960;SDS011;55902;-37.980;-63.602;2023-04-07T13:11:41;4.90;;;2.30;;
59960;SDS011;55902;-37.980;-63.602;2023-04-07T13:14:08;4.13;;;2.50;;
59960;SDS011;55902;-37.980;-63.602;2023-04-07T13:16:35;5.82;;;2.38;;
59960;SDS011;55902;-37.980;-63.602;2023-04-07T13:19:04;3.83;;;2.00;;
59960;SDS011;55902;-37.980;-63.602;2023-04-07T13:21:35;4.22;;;2.05;;
59960;SDS011;55902;-37.980;-63.602;2023-04-07T13:34:09;3.90;;;2.00;;
59960;SDS011;55902;-37.980;-63.602;2023-04-07T13:36:36;6.22;;;2.38;;
59960;SDS011;55902;-37.980;-63.602;2023-04-07T13:39:03;3.08;;;2.00;;
59960;SDS011;55902;-37.980;-63.602;2023-04-07T13:41:30;2.97;;;2.00;;
59960;SDS011;55902;-37.980;-63.602;2023-04-07T13:44:00;3.53;;;1.88;;
59960;SDS011;55902;-37.980;-63.602;2023-04-07T13:46:27;2.72;;;1.70;;
59960;SDS011;55902;-37.980;-63.602;2023-04-07T13:48:54;4.03;;;2.00;;
59960;SDS011;55902;-37.980;-63.602;2023-04-07T13:51:21;3.75;;;2.00;;
59960;SDS011;55902;-37.980;-63.602;2023-04-07T13:53:48;6.70;;;2.25;;
59960;SDS011;55902;-37.980;-63.602;2023-04-07T13:56:15;3.92;;;1.80;;
59960;SDS011;55902;-37.980;-63.602;2023-04-07T13:58:42;3.42;;;1.92;;
59960;SDS011;55902;-37.980;-63.602;2023-04-07T14:01:09;4.60;;;1.95;;
59960;SDS011;55902;-37.980;-63.602;2023-04-07T14:03:36;3.78;;;1.50;;
59960;SDS011;55902;-37.980;-63.602;2023-04-07T14:06:03;3.65;;;1.90;;
59960;SDS011;55902;-37.980;-63.602;2023-04-07T14:08:30;3.40;;;1.65;;
59960;SDS011;55902;-37.980;-63.602;2023-04-07T14:10:57;4.60;;;1.67;;
59960;SDS011;55902;-37.980;-63.602;2023-04-07T14:13:24;5.40;;;1.83;;
59960;SDS011;55902;-37.980;-63.602;2023-04-07T14:15:51;3.38;;;1.63;;
59960;SDS011;55902;-37.980;-63.602;2023-04-07T14:18:18;4.25;;;1.65;;
59960;SDS011;55902;-37.980;-63.602;2023-04-07T14:20:45;3.60;;;1.50;;
59960;SDS011;55902;-37.980;-63.602;2023-04-07T14:23:12;2.00;;;1.50;;
59960;SDS011;55902;-37.980;-63.602;2023-04-07T14:25:39;5.40;;;1.70;;
59960;SDS011;55902;-37.980;-63.602;2023-04-07T14:28:06;4.45;;;1.50;;
59960;SDS011;55902;-37.980;-63.602;2023-04-07T14:30:37;3.85;;;1.20;;
59960;SDS011;55902;-37.980;-63.602;2023-04-07T14:33:04;3.65;;;1.30;;
59960;SDS011;55902;-37.980;-63.602;2023-04-07T14:35:31;4.65;;;1.30;;
59960;SDS011;55902;-37.980;-63.602;2023-04-07T14:37:58;5.13;;;1.30;;
59960;SDS011;55902;-37.980;-63.602;2023-04-07T14:40:24;2.65;;;1.17;;
59960;SDS011;55902;-37.980;-63.602;2023-04-07T14:42:51;2.40;;;1.17;;
59960;SDS011;55902;-37.980;-63.602;2023-04-07T14:45:21;2.30;;;1.00;;
59960;SDS011;55902;-37.980;-63.602;2023-04-07T14:47:49;1.50;;;1.00;;
59960;SDS011;55902;-37.980;-63.602;2023-04-07T14:50:16;3.70;;;1.00;;
59960;SDS011;55902;-37.980;-63.602;2023-04-07T14:52:43;3.25;;;1.25;;
59960;SDS011;55902;-37.980;-63.602;2023-04-07T14:55:10;3.30;;;1.13;;
59960;SDS011;55902;-37.980;-63.602;2023-04-07T14:57:37;5.90;;;1.85;;
59960;SDS011;55902;-37.980;-63.602;2023-04-07T15:00:04;1.83;;;1.10;;
59960;SDS011;55902;-37.980;-63.602;2023-04-07T15:02:33;3.47;;;1.17;;
59960;SDS011;55902;-37.980;-63.602;2023-04-07T15:05:01;3.53;;;1.10;;
59960;SDS011;55902;-37.980;-63.602;2023-04-07T15:07:28;2.67;;;1.00;;
59960;SDS011;55902;-37.980;-63.602;2023-04-07T15:09:55;2.15;;;0.90;;
59960;SDS011;55902;-37.980;-63.602;2023-04-07T15:12:24;2.20;;;1.00;;
59960;SDS011;55902;-37.980;-63.602;2023-04-07T15:14:54;3.60;;;1.13;;
59960;SDS011;55902;-37.980;-63.602;2023-04-07T15:17:21;4.07;;;1.10;;
59960;SDS011;55902;-37.980;-63.602;2023-04-07T15:19:48;2.55;;;0.98;;
59960;SDS011;55902;-37.980;-63.602;2023-04-07T15:22:14;1.70;;;0.88;;
59960;SDS011;55902;-37.980;-63.602;2023-04-07T15:24:41;6.38;;;1.45;;
59960;SDS011;55902;-37.980;-63.602;2023-04-07T15:27:08;4.28;;;1.10;;
59960;SDS011;55902;-37.980;-63.602;2023-04-07T15:29:35;4.90;;;1.10;;
59960;SDS011;55902;-37.980;-63.602;2023-04-07T15:32:03;2.80;;;1.20;;